createdAt,value
2022-09-15T00:00:35.918Z,15.50
2022-09-15T00:02:57.813Z,16.07
2022-09-15T00:05:19.906Z,17.20
2022-09-15T00:07:41.825Z,16.77
2022-09-15T00:10:06.601Z,16.50
2022-09-15T00:12:28.468Z,17.70
2022-09-15T00:14:50.301Z,16.60
2022-09-15T00:17:12.240Z,16.70
2022-09-15T00:19:34.092Z,16.97
2022-09-15T00:21:55.876Z,16.20
2022-09-15T00:24:17.652Z,16.50
2022-09-15T00:26:39.529Z,17.40
2022-09-15T00:29:02.562Z,16.73
2022-09-15T00:31:27.547Z,17.13
2022-09-15T00:33:52.874Z,17.80
2022-09-15T00:36:15.950Z,16.30
2022-09-15T00:38:38.720Z,16.77
2022-09-15T00:41:01.834Z,16.90
2022-09-15T00:43:51.189Z,17.23
2022-09-15T00:46:15.041Z,17.50
2022-09-15T00:48:44.241Z,17.13
2022-09-15T00:51:10.265Z,15.63
2022-09-15T00:53:35.550Z,17.13
2022-09-15T00:55:59.462Z,19.13
2022-09-15T00:58:33.388Z,18.77
2022-09-15T01:01:02.082Z,16.53
2022-09-15T01:03:27.224Z,18.73
2022-09-15T01:05:57.845Z,19.70
2022-09-15T01:08:33.271Z,17.37
2022-09-15T01:10:56.745Z,19.27
2022-09-15T01:13:18.798Z,17.93
2022-09-15T01:15:56.488Z,17.50
2022-09-15T01:18:47.099Z,18.83
2022-09-15T01:21:36.639Z,17.20
2022-09-15T01:24:35.106Z,17.80
2022-09-15T01:27:30.895Z,17.67
2022-09-15T01:30:02.451Z,17.75
2022-09-15T01:33:00.945Z,17.93
2022-09-15T01:36:03.744Z,17.40
2022-09-15T01:39:01.054Z,18.57
2022-09-15T01:41:48.332Z,18.90
2022-09-15T01:44:22.236Z,16.83
2022-09-15T01:46:49.772Z,17.33
2022-09-15T01:49:19.426Z,16.73
2022-09-15T01:51:46.024Z,17.87
2022-09-15T01:54:10.371Z,17.73
2022-09-15T01:56:32.532Z,18.13
2022-09-15T01:58:54.543Z,18.90
2022-09-15T02:01:32.142Z,18.00
2022-09-15T02:04:15.784Z,17.57
2022-09-15T02:07:11.742Z,16.57
2022-09-15T02:09:51.035Z,17.87
2022-09-15T02:12:27.445Z,18.20
2022-09-15T02:15:16.639Z,18.60
2022-09-15T02:17:48.239Z,18.43
2022-09-15T02:20:25.390Z,17.27
2022-09-15T02:22:55.748Z,16.17
2022-09-15T02:25:28.983Z,16.17
2022-09-15T02:27:57.395Z,17.93
2022-09-15T02:30:21.395Z,16.73
2022-09-15T02:32:56.224Z,15.27
2022-09-15T02:35:18.558Z,16.35
2022-09-15T02:37:40.918Z,16.27
2022-09-15T02:40:04.786Z,17.00
2022-09-15T02:42:32.752Z,15.57
2022-09-15T02:44:55.546Z,16.33
2022-09-15T02:47:17.333Z,16.07
2022-09-15T02:49:39.151Z,15.53
2022-09-15T02:52:00.986Z,16.77
2022-09-15T02:54:22.766Z,16.47
2022-09-15T02:56:45.148Z,17.17
2022-09-15T02:59:07.753Z,16.30
2022-09-15T03:01:32.239Z,15.93
2022-09-15T03:06:18.521Z,16.07
2022-09-15T03:11:02.003Z,15.73
2022-09-15T03:13:24.017Z,16.07
2022-09-15T03:15:45.836Z,16.27
2022-09-15T03:18:07.672Z,14.73
2022-09-15T03:20:30.315Z,15.20
2022-09-15T03:22:52.139Z,16.27
2022-09-15T03:25:14.182Z,14.63
2022-09-15T03:27:36.581Z,16.53
2022-09-15T03:29:58.621Z,16.93
2022-09-15T03:32:20.383Z,15.90
2022-09-15T03:34:42.448Z,16.33
2022-09-15T03:37:04.455Z,15.73
2022-09-15T03:39:26.525Z,16.73
2022-09-15T03:41:48.288Z,17.70
2022-09-15T03:44:10.112Z,16.33
2022-09-15T03:46:32.146Z,16.23
2022-09-15T03:48:53.915Z,15.87
2022-09-15T03:51:15.837Z,15.20
2022-09-15T03:53:41.991Z,16.03
2022-09-15T03:56:18.350Z,15.43
2022-09-15T03:58:40.195Z,17.10
2022-09-15T04:01:02.014Z,15.67
2022-09-15T04:03:23.920Z,14.20
2022-09-15T04:05:45.700Z,15.80
2022-09-15T04:08:09.497Z,15.17
2022-09-15T04:10:31.752Z,15.90
2022-09-15T04:12:54.227Z,15.10
2022-09-15T04:15:16.150Z,15.87
2022-09-15T04:17:37.953Z,14.33
2022-09-15T04:20:01.255Z,14.13
2022-09-15T04:22:23.126Z,13.87
2022-09-15T04:24:45.132Z,14.83
2022-09-15T04:27:07.169Z,13.53
2022-09-15T04:29:28.989Z,12.90
2022-09-15T04:31:53.021Z,15.20
2022-09-15T04:34:14.900Z,14.27
2022-09-15T04:36:37.324Z,14.03
2022-09-15T04:38:59.239Z,13.30
2022-09-15T04:41:22.131Z,13.17
2022-09-15T04:43:44.320Z,13.00
2022-09-15T04:46:08.432Z,13.70
2022-09-15T04:48:31.821Z,14.55
2022-09-15T04:50:54.727Z,13.73
2022-09-15T04:53:17.320Z,13.07
2022-09-15T04:55:39.504Z,12.23
2022-09-15T04:58:02.703Z,13.33
2022-09-15T05:00:27.085Z,13.43
2022-09-15T05:02:49.035Z,12.05
2022-09-15T05:05:10.834Z,12.77
2022-09-15T05:07:32.687Z,13.13
2022-09-15T05:09:54.654Z,14.30
2022-09-15T05:12:17.440Z,14.00
2022-09-15T05:14:39.278Z,13.07
2022-09-15T05:17:01.267Z,12.27
2022-09-15T05:19:23.545Z,13.87
2022-09-15T05:21:45.444Z,12.50
2022-09-15T05:24:07.493Z,12.90
2022-09-15T05:26:30.106Z,13.53
2022-09-15T05:28:52.460Z,13.63
2022-09-15T05:31:27.978Z,13.83
2022-09-15T05:33:52.723Z,14.37
2022-09-15T05:36:15.860Z,14.20
2022-09-15T05:38:37.811Z,14.30
2022-09-15T05:41:04.471Z,14.67
2022-09-15T05:43:26.405Z,14.53
2022-09-15T05:45:55.224Z,14.13
2022-09-15T05:48:17.015Z,13.70
2022-09-15T05:50:39.578Z,13.40
2022-09-15T05:53:01.373Z,13.83
2022-09-15T05:55:23.221Z,13.70
2022-09-15T05:57:44.980Z,15.27
2022-09-15T06:00:07.899Z,13.80
2022-09-15T06:02:33.830Z,14.13
2022-09-15T06:04:55.631Z,13.30
2022-09-15T06:07:17.503Z,12.50
2022-09-15T06:09:39.488Z,14.00
2022-09-15T06:12:01.531Z,13.23
2022-09-15T06:14:23.950Z,13.60
2022-09-15T06:16:45.899Z,13.03
2022-09-15T06:19:07.784Z,13.07
2022-09-15T06:21:31.455Z,12.77
2022-09-15T06:23:55.569Z,13.18
2022-09-15T06:26:19.342Z,12.40
2022-09-15T06:28:48.449Z,12.13
2022-09-15T06:31:13.356Z,13.13
2022-09-15T06:33:35.143Z,12.83
2022-09-15T06:35:59.779Z,12.53
2022-09-15T06:38:21.677Z,12.53
2022-09-15T06:40:43.442Z,13.67
2022-09-15T06:43:05.514Z,11.97
2022-09-15T06:45:27.351Z,12.90
2022-09-15T06:48:13.358Z,12.07
2022-09-15T06:50:34.126Z,12.27
2022-09-15T06:52:55.951Z,12.60
2022-09-15T06:55:17.940Z,13.07
2022-09-15T06:57:39.722Z,12.40
2022-09-15T07:00:02.561Z,12.30
2022-09-15T07:02:24.563Z,11.47
2022-09-15T07:04:46.522Z,10.93
2022-09-15T07:07:08.579Z,11.00
2022-09-15T07:09:30.498Z,11.47
2022-09-15T07:11:52.821Z,11.10
2022-09-15T07:14:14.786Z,9.80
2022-09-15T07:16:36.682Z,10.43
2022-09-15T07:19:01.332Z,10.30
2022-09-15T07:23:45.100Z,8.80
2022-09-15T07:26:09.926Z,8.97
2022-09-15T07:28:31.757Z,8.23
2022-09-15T07:30:53.583Z,8.10
2022-09-15T07:33:15.642Z,7.50
2022-09-15T07:35:45.134Z,6.93
2022-09-15T07:38:06.899Z,7.83
2022-09-15T07:40:29.240Z,7.27
2022-09-15T07:42:51.080Z,7.23
2022-09-15T07:45:12.952Z,6.93
2022-09-15T07:47:34.833Z,7.30
2022-09-15T07:49:56.640Z,6.07
2022-09-15T07:52:18.509Z,6.83
2022-09-15T07:54:40.349Z,6.27
2022-09-15T07:57:02.298Z,5.60
2022-09-15T07:59:24.095Z,5.60
2022-09-15T08:01:46.906Z,4.80
2022-09-15T08:04:08.771Z,5.80
2022-09-15T08:06:30.731Z,5.80
2022-09-15T08:08:57.737Z,5.50
2022-09-15T08:11:22.561Z,5.73
2022-09-15T08:13:49.621Z,5.80
2022-09-15T08:16:16.071Z,5.93
2022-09-15T08:18:42.341Z,5.37
2022-09-15T08:21:07.128Z,5.60
2022-09-15T08:23:28.924Z,5.90
2022-09-15T08:25:51.797Z,6.17
2022-09-15T08:28:14.109Z,6.17
2022-09-15T08:30:36.152Z,7.03
2022-09-15T08:32:58.005Z,6.50
2022-09-15T08:35:20.412Z,6.80
2022-09-15T08:37:42.282Z,6.60
2022-09-15T08:40:04.739Z,7.20
2022-09-15T08:42:29.134Z,6.47
2022-09-15T08:44:59.751Z,6.82
2022-09-15T08:47:46.748Z,6.23
2022-09-15T08:50:28.383Z,6.50
2022-09-15T08:53:02.341Z,6.37
2022-09-15T08:55:48.923Z,6.07
2022-09-15T08:58:20.351Z,6.33
2022-09-15T09:00:46.806Z,5.37
2022-09-15T09:04:15.366Z,5.73
2022-09-15T09:07:00.630Z,6.00
2022-09-15T09:09:48.394Z,6.37
2022-09-15T09:12:23.665Z,6.67
2022-09-15T09:15:43.381Z,6.70
2022-09-15T09:18:41.885Z,6.97
2022-09-15T09:21:22.343Z,6.83
2022-09-15T09:23:54.258Z,5.27
2022-09-15T09:26:16.651Z,4.67
2022-09-15T09:29:08.286Z,4.20
2022-09-15T09:31:30.249Z,4.37
2022-09-15T09:34:06.191Z,4.37
2022-09-15T09:36:28.339Z,3.63
2022-09-15T09:38:51.042Z,3.90
2022-09-15T09:41:25.326Z,3.80
2022-09-15T09:43:49.943Z,3.85
2022-09-15T09:46:17.933Z,4.07
2022-09-15T09:48:46.445Z,3.47
2022-09-15T09:51:59.917Z,4.13
2022-09-15T09:54:27.265Z,2.20
2022-09-15T09:56:52.016Z,1.83
2022-09-15T09:59:43.246Z,2.07
2022-09-15T10:02:11.126Z,2.27
2022-09-15T10:04:32.928Z,2.70
2022-09-15T10:06:56.446Z,2.57
2022-09-15T10:09:19.932Z,2.00
2022-09-15T10:11:52.147Z,2.00
2022-09-15T10:14:42.006Z,2.20
2022-09-15T10:17:15.527Z,2.40
2022-09-15T10:19:47.969Z,2.10
2022-09-15T10:22:33.553Z,2.10
2022-09-15T10:24:55.467Z,2.10
2022-09-15T10:27:34.870Z,1.77
2022-09-15T10:30:16.304Z,1.83
2022-09-15T10:32:38.881Z,2.03
2022-09-15T10:35:11.504Z,2.17
2022-09-15T10:38:11.626Z,1.80
2022-09-15T10:40:54.101Z,1.60
2022-09-15T10:43:42.490Z,1.60
2022-09-15T10:46:39.260Z,1.23
2022-09-15T10:49:37.348Z,1.40
2022-09-15T10:52:34.187Z,1.50
2022-09-15T10:55:52.638Z,1.50
2022-09-15T10:58:43.536Z,1.43
2022-09-15T11:01:29.076Z,1.30
2022-09-15T11:04:15.533Z,1.00
2022-09-15T11:06:51.639Z,1.33
2022-09-15T11:09:13.410Z,1.37
2022-09-15T11:11:54.597Z,1.13
2022-09-15T11:14:44.160Z,1.20
2022-09-15T11:17:37.511Z,1.20
2022-09-15T11:20:21.953Z,1.40
2022-09-15T11:22:58.222Z,1.73
2022-09-15T11:25:25.699Z,1.33
2022-09-15T11:27:53.986Z,1.50
2022-09-15T11:30:29.602Z,1.43
2022-09-15T11:33:13.179Z,1.93
2022-09-15T11:35:45.190Z,1.40
2022-09-15T11:38:32.093Z,1.90
2022-09-15T11:41:02.942Z,1.33
2022-09-15T11:43:37.633Z,1.50
2022-09-15T11:46:25.294Z,2.05
2022-09-15T11:49:08.769Z,1.63
2022-09-15T11:51:41.884Z,1.40
2022-09-15T11:54:21.295Z,1.33
2022-09-15T11:56:47.294Z,1.33
2022-09-15T11:59:39.575Z,1.60
2022-09-15T12:02:39.197Z,1.23
2022-09-15T12:05:15.053Z,1.63
2022-09-15T12:07:59.702Z,1.40
2022-09-15T12:10:31.310Z,1.40
2022-09-15T12:12:54.381Z,1.42
2022-09-15T12:15:27.119Z,1.40
2022-09-15T12:18:06.636Z,1.58
2022-09-15T12:20:53.426Z,1.50
2022-09-15T12:23:25.369Z,1.50
2022-09-15T12:26:17.688Z,1.40
2022-09-15T12:28:54.180Z,1.58
2022-09-15T12:31:40.468Z,1.60
2022-09-15T12:34:24.773Z,1.83
2022-09-15T12:36:52.970Z,1.70
2022-09-15T12:39:43.440Z,2.15
2022-09-15T12:42:21.334Z,1.40
2022-09-15T12:44:44.992Z,2.00
2022-09-15T12:47:21.744Z,2.03
2022-09-15T12:49:48.118Z,2.20
2022-09-15T12:52:12.106Z,1.90
2022-09-15T12:54:38.714Z,1.58
2022-09-15T12:57:02.312Z,1.48
2022-09-15T12:59:28.021Z,2.05
2022-09-15T13:01:50.844Z,1.85
2022-09-15T13:04:43.601Z,1.33
2022-09-15T13:07:21.124Z,1.60
2022-09-15T13:09:45.604Z,1.30
2022-09-15T13:14:42.071Z,1.30
2022-09-15T13:17:22.780Z,1.40
2022-09-15T13:19:50.200Z,1.45
2022-09-15T13:22:16.506Z,1.42
2022-09-15T13:25:05.813Z,1.48
2022-09-15T13:27:45.197Z,1.20
2022-09-15T13:30:44.254Z,1.88
2022-09-15T13:40:05.134Z,1.40
2022-09-15T13:43:40.835Z,1.40
2022-09-15T13:46:31.177Z,1.30
2022-09-15T13:48:59.106Z,1.17
2022-09-15T13:51:29.961Z,1.30
2022-09-15T13:54:06.180Z,0.90
2022-09-15T13:56:33.782Z,1.05
2022-09-15T13:59:14.122Z,1.20
2022-09-15T14:01:40.674Z,1.17
2022-09-15T14:04:12.719Z,1.23
2022-09-15T14:06:39.212Z,1.20
2022-09-15T14:09:13.562Z,1.30
2022-09-15T14:11:38.163Z,1.42
2022-09-15T14:14:00.916Z,1.10
2022-09-15T14:16:33.923Z,1.20
2022-09-15T14:18:58.601Z,1.20
2022-09-15T14:23:52.061Z,1.08
2022-09-15T14:26:18.693Z,1.00
2022-09-15T14:28:48.453Z,1.15
2022-09-15T14:31:10.441Z,1.13
2022-09-15T14:33:38.278Z,0.95
2022-09-15T14:36:00.445Z,1.10
2022-09-15T14:38:25.837Z,1.17
2022-09-15T14:40:53.398Z,1.08
2022-09-15T14:43:35.861Z,1.20
2022-09-15T14:46:18.477Z,1.20
2022-09-15T14:48:40.369Z,1.00
2022-09-15T14:51:08.783Z,1.00
2022-09-15T14:53:38.103Z,1.23
2022-09-15T14:56:15.166Z,1.20
2022-09-15T14:58:52.804Z,1.10
2022-09-15T15:01:30.492Z,1.17
2022-09-15T15:04:19.338Z,0.90
2022-09-15T15:06:55.887Z,1.07
2022-09-15T15:09:38.935Z,1.00
2022-09-15T15:12:14.535Z,1.40
2022-09-15T15:14:36.803Z,1.00
2022-09-15T15:17:05.848Z,1.17
2022-09-15T15:19:41.282Z,1.17
2022-09-15T15:22:13.984Z,1.10
2022-09-15T15:24:42.962Z,0.77
2022-09-15T15:27:33.241Z,0.90
2022-09-15T15:29:55.086Z,1.00
2022-09-15T15:32:22.275Z,1.10
2022-09-15T15:34:53.665Z,1.00
2022-09-15T15:37:27.589Z,1.00
2022-09-15T15:39:49.704Z,1.20
2022-09-15T15:42:16.237Z,1.00
2022-09-15T15:44:38.161Z,1.20
2022-09-15T15:47:23.776Z,1.17
2022-09-15T15:50:11.880Z,1.30
2022-09-15T15:52:27.366Z,1.20
2022-09-15T15:54:49.123Z,1.43
2022-09-15T15:57:30.310Z,1.00
2022-09-15T15:59:59.421Z,1.60
2022-09-15T16:02:23.497Z,1.40
2022-09-15T16:04:45.324Z,1.20
2022-09-15T16:07:16.606Z,1.50
2022-09-15T16:09:38.896Z,1.40
2022-09-15T16:12:00.926Z,1.30
2022-09-15T16:14:22.962Z,1.60
2022-09-15T16:16:45.017Z,1.30
2022-09-15T16:19:07.861Z,1.27
2022-09-15T16:21:38.812Z,0.93
2022-09-15T16:24:00.584Z,1.60
2022-09-15T16:26:24.963Z,1.33
2022-09-15T16:28:46.935Z,1.05
2022-09-15T16:31:13.163Z,1.40
2022-09-15T16:33:38.086Z,1.77
2022-09-15T16:36:06.909Z,1.70
2022-09-15T16:38:28.729Z,1.37
2022-09-15T16:40:51.264Z,1.17
2022-09-15T16:43:16.308Z,1.37
2022-09-15T16:45:40.835Z,1.50
2022-09-15T16:48:04.050Z,1.23
2022-09-15T16:50:26.765Z,1.60
2022-09-15T16:52:48.674Z,1.87
2022-09-15T16:55:27.239Z,1.60
2022-09-15T16:57:49.877Z,1.80
2022-09-15T17:00:12.842Z,2.00
2022-09-15T17:02:34.733Z,1.30
2022-09-15T17:04:56.496Z,1.23
2022-09-15T17:07:18.609Z,1.30
2022-09-15T17:09:40.916Z,1.40
2022-09-15T17:12:04.200Z,1.20
2022-09-15T17:14:26.018Z,1.30
2022-09-15T17:16:52.672Z,1.37
2022-09-15T17:19:14.462Z,1.30
2022-09-15T17:21:36.671Z,1.40
2022-09-15T17:23:58.486Z,1.33
2022-09-15T17:26:28.838Z,1.30
2022-09-15T17:28:52.912Z,1.50
2022-09-15T17:31:20.533Z,1.40
2022-09-15T17:33:43.776Z,1.57
2022-09-15T17:36:05.997Z,1.40
2022-09-15T17:38:28.111Z,1.50
2022-09-15T17:40:51.331Z,1.40
2022-09-15T17:43:23.203Z,1.47
2022-09-15T17:45:45.691Z,1.43
2022-09-15T17:48:07.700Z,1.27
2022-09-15T17:50:33.650Z,1.40
2022-09-15T17:52:56.463Z,1.50
2022-09-15T17:55:27.743Z,1.60
2022-09-15T17:57:50.474Z,1.83
2022-09-15T18:00:14.152Z,1.60
2022-09-15T18:02:36.129Z,1.80
2022-09-15T18:04:58.286Z,1.60
2022-09-15T18:07:20.208Z,1.87
2022-09-15T18:09:42.130Z,2.00
2022-09-15T18:12:04.431Z,2.03
2022-09-15T18:14:26.158Z,2.00
2022-09-15T18:16:48.018Z,2.10
2022-09-15T18:19:09.820Z,2.33
2022-09-15T18:21:31.740Z,2.50
2022-09-15T18:23:53.618Z,2.30
2022-09-15T18:26:15.501Z,2.23
2022-09-15T18:28:37.257Z,1.67
2022-09-15T18:30:59.071Z,1.83
2022-09-15T18:33:24.554Z,2.40
2022-09-15T18:35:49.137Z,2.10
2022-09-15T18:40:33.703Z,2.40
2022-09-15T18:42:56.593Z,1.97
2022-09-15T18:45:19.980Z,2.50
2022-09-15T18:47:44.953Z,2.30
2022-09-15T18:50:07.349Z,2.20
2022-09-15T18:52:29.493Z,1.90
2022-09-15T18:54:52.354Z,2.00
2022-09-15T18:57:14.186Z,1.90
2022-09-15T18:59:36.014Z,2.00
2022-09-15T19:01:57.903Z,1.80
2022-09-15T19:04:19.749Z,1.90
2022-09-15T19:06:41.927Z,2.30
2022-09-15T19:09:03.857Z,2.03
2022-09-15T19:11:28.851Z,1.90
2022-09-15T19:13:53.467Z,2.13
2022-09-15T19:16:15.454Z,1.60
2022-09-15T19:18:37.984Z,1.70
2022-09-15T19:21:11.780Z,1.70
2022-09-15T19:23:35.978Z,1.60
2022-09-15T19:25:57.794Z,1.70
2022-09-15T19:28:19.591Z,1.87
2022-09-15T19:30:41.354Z,1.40
2022-09-15T19:33:03.398Z,1.93
2022-09-15T19:35:25.231Z,3.20
2022-09-15T19:37:47.354Z,4.90
2022-09-15T19:40:13.965Z,2.40
2022-09-15T19:42:38.519Z,2.30
2022-09-15T19:47:22.064Z,1.70
2022-09-15T19:49:44.281Z,1.90
2022-09-15T19:52:06.593Z,3.57
2022-09-15T19:54:30.977Z,1.70
2022-09-15T19:56:53.149Z,1.42
2022-09-15T19:59:15.070Z,1.60
2022-09-15T20:01:37.109Z,1.10
2022-09-15T20:03:59.466Z,1.00
2022-09-15T20:06:22.111Z,1.00
2022-09-15T20:08:45.806Z,1.30
2022-09-15T20:11:09.297Z,1.52
2022-09-15T20:13:31.404Z,1.20
2022-09-15T20:16:02.689Z,1.30
2022-09-15T20:18:25.431Z,1.20
2022-09-15T20:20:47.169Z,0.90
2022-09-15T20:23:09.097Z,1.40
2022-09-15T20:25:30.973Z,1.20
2022-09-15T20:27:52.981Z,1.40
2022-09-15T20:30:14.891Z,1.40
2022-09-15T20:32:36.714Z,1.00
2022-09-15T20:34:58.848Z,1.10
2022-09-15T20:37:22.428Z,2.23
2022-09-15T20:39:47.931Z,1.70
2022-09-15T20:42:09.776Z,2.03
2022-09-15T20:44:31.551Z,1.83
2022-09-15T20:46:53.372Z,1.70
2022-09-15T20:49:15.801Z,1.40
2022-09-15T20:51:37.574Z,1.83
2022-09-15T20:54:02.092Z,1.30
2022-09-15T20:58:55.184Z,1.27
2022-09-15T21:01:24.570Z,1.50
2022-09-15T21:03:47.862Z,1.57
2022-09-15T21:06:14.407Z,1.63
2022-09-15T21:08:37.676Z,1.47
2022-09-15T21:10:59.442Z,1.17
2022-09-15T21:13:24.688Z,1.23
2022-09-15T21:16:02.405Z,1.37
2022-09-15T21:18:35.623Z,1.50
2022-09-15T21:21:10.272Z,1.20
2022-09-15T21:23:40.278Z,1.13
2022-09-15T21:26:07.408Z,1.20
2022-09-15T21:28:30.454Z,1.10
2022-09-15T21:30:53.651Z,1.30
2022-09-15T21:33:15.573Z,1.30
2022-09-15T21:35:37.401Z,1.80
2022-09-15T21:38:00.751Z,1.90
2022-09-15T21:40:22.707Z,2.50
2022-09-15T21:42:44.484Z,2.10
2022-09-15T21:45:07.448Z,2.60
2022-09-15T21:47:30.098Z,2.33
2022-09-15T21:49:51.867Z,2.40
2022-09-15T21:52:13.606Z,1.83
2022-09-15T21:54:35.339Z,2.20
2022-09-15T21:56:57.479Z,2.13
2022-09-15T21:59:19.280Z,1.50
2022-09-15T22:01:41.648Z,1.70
2022-09-15T22:04:10.416Z,1.53
2022-09-15T22:06:35.909Z,1.50
2022-09-15T22:09:00.004Z,1.73
2022-09-15T22:11:23.332Z,1.73
2022-09-15T22:13:45.039Z,1.67
2022-09-15T22:16:17.870Z,2.07
2022-09-15T22:18:41.793Z,1.80
2022-09-15T22:21:22.422Z,1.65
2022-09-15T22:23:46.557Z,1.80
2022-09-15T22:26:16.229Z,1.60
2022-09-15T22:28:39.058Z,1.40
2022-09-15T22:31:03.530Z,1.60
2022-09-15T22:35:47.732Z,2.10
2022-09-15T22:38:09.498Z,1.70
2022-09-15T22:40:31.347Z,1.70
2022-09-15T22:42:53.153Z,1.70
2022-09-15T22:45:15.088Z,1.80
2022-09-15T22:47:36.905Z,1.50
2022-09-15T22:49:58.664Z,1.53
2022-09-15T22:52:21.222Z,1.63
2022-09-15T22:54:43.010Z,1.63
2022-09-15T22:57:05.128Z,1.50
2022-09-15T22:59:27.788Z,1.63
2022-09-15T23:01:49.677Z,1.80
2022-09-15T23:04:11.602Z,1.50
2022-09-15T23:06:34.799Z,1.70
2022-09-15T23:09:00.591Z,2.03
2022-09-15T23:11:24.401Z,1.60
2022-09-15T23:13:46.737Z,1.88
2022-09-15T23:16:09.733Z,1.60
2022-09-15T23:18:32.498Z,1.70
2022-09-15T23:21:09.603Z,2.20
2022-09-15T23:23:31.418Z,2.03
2022-09-15T23:25:53.245Z,1.63
2022-09-15T23:28:14.964Z,1.80
2022-09-15T23:30:38.699Z,1.60
2022-09-15T23:33:00.512Z,1.48
2022-09-15T23:35:22.253Z,1.80
2022-09-15T23:37:44.229Z,1.80
2022-09-15T23:40:06.442Z,1.93
2022-09-15T23:42:28.220Z,1.93
2022-09-15T23:44:50.010Z,1.90
2022-09-15T23:47:11.762Z,2.03
2022-09-15T23:49:33.518Z,1.60
2022-09-15T23:51:55.289Z,1.70
2022-09-15T23:54:17.221Z,1.83
2022-09-15T23:56:39.128Z,1.43
2022-09-15T23:59:00.952Z,1.63
